This is the latest recevied weather packets stored in our database for station/object OK1FET-5. If no packets are shown the sender has not sent any weather packets the latest 10 day(s).
| Time | Temp. | Humidity | Pressure | Rain* | Wind** | Luminosity | Snow |
|---|---|---|---|---|---|---|---|
| 1777486628 | 7.22° C | 25% | 1029.2 hPa | - | - | - | - |
| 1777486334 | 7.22° C | 25% | 1029.2 hPa | - | - | - | - |
| 1777486040 | 7.78° C | 25% | 1029.1 hPa | - | - | - | - |
| 1777485746 | 7.78° C | 25% | 1028.9 hPa | - | - | - | - |
| 1777484276 | 8.89° C | 24% | 1028.6 hPa | - | - | - | - |
| 1777483982 | 8.89° C | 25% | 1028.4 hPa | - | - | - | - |
| 1777483688 | 8.89° C | 24% | 1028.5 hPa | - | - | - | - |
| 1777483394 | 9.44° C | 24% | 1028.4 hPa | - | - | - | - |
| 1777483100 | 9.44° C | 25% | 1028.4 hPa | - | - | - | - |
| 1777482806 | 10° C | 24% | 1028.3 hPa | - | - | - | - |
| 1777481923 | 11.11° C | 25% | 1028.1 hPa | - | - | - | - |
| 1777481040 | 11.67° C | 26% | 1028 hPa | - | - | - | - |
| 1777480745 | 11.67° C | 26% | 1027.9 hPa | - | - | - | - |
| 1777480451 | 11.67° C | 26% | 1027.9 hPa | - | - | - | - |
| 1777480156 | 12.22° C | 26% | 1027.9 hPa | - | - | - | - |
| 1777479862 | 12.22° C | 26% | 1027.9 hPa | - | - | - | - |
| 1777479568 | 12.22° C | 26% | 1027.8 hPa | - | - | - | - |
| 1777478979 | 12.78° C | 26% | 1027.7 hPa | - | - | - | - |
| 1777477801 | 13.89° C | 26% | 1027.6 hPa | - | - | - | - |
| 1777477212 | 13.89° C | 25% | 1027.5 hPa | - | - | - | - |
| 1777476917 | 13.89° C | 27% | 1027.5 hPa | - | - | - | - |
| 1777473970 | 15.56° C | 25% | 1027.3 hPa | - | - | - | - |
| 1777471906 | 16.67° C | 26% | 1027.2 hPa | - | - | - | - |
| 1777471611 | 16.67° C | 25% | 1027.1 hPa | - | - | - | - |
| 1777471316 | 16.67° C | 25% | 1027.2 hPa | - | - | - | - |
* Rain since midnight (hover to see other rain measurements)
** Current wind speed in m/s (hover to see current wind gust speed)